Time;durP1;ratioP1;P1;durP2;ratioP2;P2;SDS_P1;SDS_P2;PMS_P1;PMS_P2;Temp;Humidity;BMP_temperature;BMP_pressure;BME280_temperature;BME280_humidity;BME280_pressure;Samples;Min_cycle;Max_cycle;Signal;HPM_P1;HPM_P2
2023/03/03 00:02:19;;;;;;;25.13;12.63;;;;;;;;;;5023133;28;20171;-69
2023/03/03 00:04:44;;;;;;;25.00;12.70;;;;;;;;;;5021004;28;20038;-69
2023/03/03 00:07:14;;;;;;;24.67;12.82;;;;;;;;;;5023459;28;20040;-69
2023/03/03 00:09:41;;;;;;;32.15;11.55;;;;;;;;;;5021313;28;20030;-70
2023/03/03 00:12:18;;;;;;;22.25;11.40;;;;;;;;;;5023246;28;20111;-69
2023/03/03 00:14:44;;;;;;;23.35;11.18;;;;;;;;;;5021551;28;20014;-69
2023/03/03 00:17:19;;;;;;;25.83;11.57;;;;;;;;;;5023620;28;20505;-69
2023/03/03 00:19:46;;;;;;;22.42;11.13;;;;;;;;;;5023537;28;20036;-69
2023/03/03 00:22:46;;;;;;;22.02;10.00;;;;;;;;;;5011146;28;20210;-71
2023/03/03 00:25:27;;;;;;;21.00;10.38;;;;;;;;;;4981036;28;20299;-69
2023/03/03 00:28:00;;;;;;;21.65;10.60;;;;;;;;;;5002816;28;20610;-68
2023/03/03 00:30:26;;;;;;;22.42;9.63;;;;;;;;;;5003132;28;20036;-68
2023/03/03 00:32:54;;;;;;;24.35;10.20;;;;;;;;;;5003022;28;20030;-69
2023/03/03 00:35:29;;;;;;;22.50;10.15;;;;;;;;;;5001382;28;20038;-69
2023/03/03 00:37:57;;;;;;;21.25;10.02;;;;;;;;;;5003066;28;20112;-68
2023/03/03 00:40:24;;;;;;;20.58;9.50;;;;;;;;;;5001415;28;20178;-68
2023/03/03 00:42:54;;;;;;;22.42;9.77;;;;;;;;;;5003570;28;20112;-68
2023/03/03 00:45:27;;;;;;;22.52;9.20;;;;;;;;;;4985177;28;20368;-68
2023/03/03 00:47:52;;;;;;;19.75;9.27;;;;;;;;;;5000961;28;20042;-68
2023/03/03 00:50:32;;;;;;;28.23;8.93;;;;;;;;;;5001233;28;20106;-68
2023/03/03 00:53:01;;;;;;;21.33;9.13;;;;;;;;;;5019772;28;20030;-67
2023/03/03 00:55:27;;;;;;;20.27;8.35;;;;;;;;;;5022467;28;20029;-68
2023/03/03 00:57:52;;;;;;;17.20;8.43;;;;;;;;;;5022702;28;20033;-70
2023/03/03 01:00:20;;;;;;;17.10;7.95;;;;;;;;;;5020529;28;20026;-69
2023/03/03 01:02:47;;;;;;;18.88;7.25;;;;;;;;;;5004668;28;20056;-69
2023/03/03 01:05:13;;;;;;;21.08;7.20;;;;;;;;;;5020755;28;20509;-69
2023/03/03 01:07:38;;;;;;;16.25;6.90;;;;;;;;;;5021283;28;20041;-68
2023/03/03 01:10:04;;;;;;;20.20;7.05;;;;;;;;;;5001038;28;20103;-69
2023/03/03 01:12:31;;;;;;;14.90;7.18;;;;;;;;;;5003407;28;20374;-69
2023/03/03 01:14:57;;;;;;;17.33;6.80;;;;;;;;;;5022371;28;20029;-68
2023/03/03 01:17:22;;;;;;;19.60;7.28;;;;;;;;;;5022392;28;20041;-68
2023/03/03 01:19:47;;;;;;;15.52;6.55;;;;;;;;;;5053797;28;20087;-69
2023/03/03 01:22:15;;;;;;;12.13;6.15;;;;;;;;;;5021855;28;20041;-69
2023/03/03 01:24:40;;;;;;;15.27;6.55;;;;;;;;;;5024853;28;20026;-68
2023/03/03 01:27:05;;;;;;;11.85;5.95;;;;;;;;;;5005329;28;20030;-69
2023/03/03 01:29:30;;;;;;;15.07;6.65;;;;;;;;;;5006201;28;20045;-69
2023/03/03 01:31:56;;;;;;;10.85;5.85;;;;;;;;;;5006422;28;20065;-69
2023/03/03 01:34:23;;;;;;;13.68;5.68;;;;;;;;;;5054450;28;20200;-69
2023/03/03 01:36:49;;;;;;;10.05;4.78;;;;;;;;;;5026547;28;20014;-68
2023/03/03 01:39:16;;;;;;;15.50;5.40;;;;;;;;;;5057852;28;20394;-68
2023/03/03 01:41:41;;;;;;;20.83;5.22;;;;;;;;;;5057591;28;20033;-68
2023/03/03 01:44:13;;;;;;;14.70;4.93;;;;;;;;;;5024450;28;20028;-68
2023/03/03 01:46:47;;;;;;;15.23;4.90;;;;;;;;;;5025050;28;20514;-70
2023/03/03 01:49:30;;;;;;;13.98;4.80;;;;;;;;;;5024135;28;20283;-68
2023/03/03 01:51:59;;;;;;;10.73;4.00;;;;;;;;;;5022670;28;20516;-69
2023/03/03 01:54:46;;;;;;;14.10;4.03;;;;;;;;;;5025215;28;20030;-68
2023/03/03 01:57:16;;;;;;;16.35;4.00;;;;;;;;;;5025633;28;20029;-68
2023/03/03 01:59:48;;;;;;;8.65;3.60;;;;;;;;;;5025745;28;20036;-70
2023/03/03 02:02:13;;;;;;;7.75;4.00;;;;;;;;;;5025414;28;20410;-68
2023/03/03 02:04:41;;;;;;;10.63;3.20;;;;;;;;;;5024013;28;20041;-68
2023/03/03 02:07:10;;;;;;;7.18;3.60;;;;;;;;;;5040436;28;20056;-68
2023/03/03 02:09:35;;;;;;;11.90;3.33;;;;;;;;;;5025767;28;20021;-68
2023/03/03 02:12:02;;;;;;;12.40;3.15;;;;;;;;;;5025648;28;20022;-68
2023/03/03 02:14:30;;;;;;;12.75;3.30;;;;;;;;;;5025103;28;20399;-68
2023/03/03 02:16:55;;;;;;;10.50;3.20;;;;;;;;;;5025321;28;20018;-68
2023/03/03 02:19:28;;;;;;;11.70;2.88;;;;;;;;;;5055947;28;20033;-69
2023/03/03 02:21:53;;;;;;;10.13;3.60;;;;;;;;;;5024968;28;20126;-69
2023/03/03 02:24:22;;;;;;;12.90;3.15;;;;;;;;;;5007272;28;20125;-68
2023/03/03 02:26:47;;;;;;;8.60;2.85;;;;;;;;;;5024924;28;20488;-68
2023/03/03 02:29:13;;;;;;;9.65;2.70;;;;;;;;;;5025469;28;20041;-68
2023/03/03 02:31:41;;;;;;;8.10;2.80;;;;;;;;;;5025362;28;20501;-69
2023/03/03 02:34:09;;;;;;;11.52;2.70;;;;;;;;;;5025083;28;20045;-68
2023/03/03 02:36:36;;;;;;;7.93;2.70;;;;;;;;;;5004764;28;20030;-68
2023/03/03 02:39:10;;;;;;;11.10;2.78;;;;;;;;;;5003398;28;20034;-68
2023/03/03 02:41:35;;;;;;;7.70;2.50;;;;;;;;;;5021950;28;20542;-68
2023/03/03 02:44:03;;;;;;;7.63;2.70;;;;;;;;;;5025066;28;20113;-69
2023/03/03 02:46:35;;;;;;;8.45;2.65;;;;;;;;;;5024458;28;20052;-68
2023/03/03 02:49:01;;;;;;;7.55;2.70;;;;;;;;;;5024736;28;20106;-69
2023/03/03 02:51:29;;;;;;;9.23;2.95;;;;;;;;;;5022927;28;20032;-68
2023/03/03 02:53:54;;;;;;;7.00;2.47;;;;;;;;;;5023763;28;20100;-67
2023/03/03 02:56:24;;;;;;;12.32;2.83;;;;;;;;;;5024447;28;20410;-68
2023/03/03 02:58:49;;;;;;;9.88;2.55;;;;;;;;;;5024622;28;20030;-67
2023/03/03 03:01:15;;;;;;;4.80;2.40;;;;;;;;;;5025053;28;20044;-68
2023/03/03 03:03:43;;;;;;;8.50;2.83;;;;;;;;;;5024540;28;20053;-67
2023/03/03 03:06:10;;;;;;;9.02;2.70;;;;;;;;;;5007082;28;20040;-68
2023/03/03 03:08:36;;;;;;;8.32;3.10;;;;;;;;;;5024265;28;20410;-68
2023/03/03 03:11:02;;;;;;;9.38;2.55;;;;;;;;;;5023165;28;20037;-68
2023/03/03 03:13:27;;;;;;;8.93;2.58;;;;;;;;;;5022386;28;20033;-68
2023/03/03 03:15:53;;;;;;;8.80;2.70;;;;;;;;;;5024430;28;20033;-68
2023/03/03 03:18:18;;;;;;;6.88;2.53;;;;;;;;;;5021693;28;20103;-67
2023/03/03 03:20:43;;;;;;;5.85;2.40;;;;;;;;;;5024496;28;20422;-67
2023/03/03 03:23:09;;;;;;;7.40;2.42;;;;;;;;;;5024065;28;20116;-67
2023/03/03 03:25:44;;;;;;;7.15;2.70;;;;;;;;;;5024293;28;20500;-68
2023/03/03 03:28:15;;;;;;;8.75;2.50;;;;;;;;;;5024020;28;20037;-68
2023/03/03 03:30:44;;;;;;;6.82;2.60;;;;;;;;;;5024522;28;20037;-68
2023/03/03 03:33:09;;;;;;;9.68;2.38;;;;;;;;;;5017588;28;20037;-68
2023/03/03 03:35:35;;;;;;;7.45;2.10;;;;;;;;;;5019176;28;20038;-68
2023/03/03 03:38:00;;;;;;;9.55;2.35;;;;;;;;;;5013759;28;20040;-68
2023/03/03 03:40:26;;;;;;;8.75;2.53;;;;;;;;;;5002469;28;20446;-68
2023/03/03 03:42:52;;;;;;;8.70;2.40;;;;;;;;;;5001836;28;20030;-68
2023/03/03 03:45:17;;;;;;;6.85;2.00;;;;;;;;;;5019002;28;20033;-68
2023/03/03 03:47:42;;;;;;;8.93;2.33;;;;;;;;;;5019325;28;20037;-68
2023/03/03 03:50:08;;;;;;;8.73;2.58;;;;;;;;;;5022136;28;20038;-68
2023/03/03 03:52:36;;;;;;;8.30;2.40;;;;;;;;;;5023466;28;20033;-69
2023/03/03 03:55:01;;;;;;;7.65;2.88;;;;;;;;;;5023769;28;20359;-67
2023/03/03 03:57:26;;;;;;;9.23;2.38;;;;;;;;;;5023218;28;20040;-68
2023/03/03 03:59:51;;;;;;;11.82;3.22;;;;;;;;;;5023850;28;20069;-68
2023/03/03 04:02:17;;;;;;;6.28;2.63;;;;;;;;;;5021698;28;20037;-68
2023/03/03 04:04:45;;;;;;;7.28;2.72;;;;;;;;;;5023682;28;20041;-68
2023/03/03 04:07:12;;;;;;;7.65;2.75;;;;;;;;;;5023112;28;20080;-68
2023/03/03 04:09:40;;;;;;;8.68;2.35;;;;;;;;;;5021371;28;20041;-68
2023/03/03 04:12:05;;;;;;;11.75;2.72;;;;;;;;;;5023322;28;20026;-68
2023/03/03 04:14:30;;;;;;;9.35;2.65;;;;;;;;;;5022588;28;20060;-68
2023/03/03 04:16:58;;;;;;;6.32;2.50;;;;;;;;;;5021596;28;20471;-68
2023/03/03 04:19:26;;;;;;;9.93;2.40;;;;;;;;;;5022769;28;20041;-68
2023/03/03 04:21:51;;;;;;;9.00;2.95;;;;;;;;;;5021497;28;20033;-68
2023/03/03 04:24:18;;;;;;;7.38;2.80;;;;;;;;;;5023813;28;20036;-68
2023/03/03 04:26:43;;;;;;;8.52;2.95;;;;;;;;;;5021239;28;20030;-69
2023/03/03 04:29:08;;;;;;;6.40;2.60;;;;;;;;;;5005204;28;20044;-68
2023/03/03 04:31:36;;;;;;;15.07;3.30;;;;;;;;;;5020954;28;20038;-68
2023/03/03 04:34:01;;;;;;;7.43;2.60;;;;;;;;;;5021560;28;20682;-69
2023/03/03 04:36:26;;;;;;;9.90;3.03;;;;;;;;;;5022695;28;20041;-67
2023/03/03 04:38:52;;;;;;;7.90;2.65;;;;;;;;;;5022266;28;20034;-68
2023/03/03 04:41:17;;;;;;;10.88;3.15;;;;;;;;;;5020846;28;20036;-69
2023/03/03 04:43:42;;;;;;;8.07;3.28;;;;;;;;;;5022749;28;20033;-67
2023/03/03 04:46:07;;;;;;;9.75;3.85;;;;;;;;;;5020767;28;20053;-66
2023/03/03 04:48:33;;;;;;;8.35;3.20;;;;;;;;;;5021170;28;20120;-67
2023/03/03 04:51:03;;;;;;;7.95;3.28;;;;;;;;;;5023812;28;20041;-68
2023/03/03 04:53:28;;;;;;;7.55;3.17;;;;;;;;;;5023039;28;20025;-67
2023/03/03 04:55:53;;;;;;;9.20;3.05;;;;;;;;;;5022719;28;20025;-68
2023/03/03 04:58:19;;;;;;;13.27;3.92;;;;;;;;;;5004225;28;20109;-68
2023/03/03 05:00:45;;;;;;;8.45;3.33;;;;;;;;;;5025408;28;20033;-68
2023/03/03 05:03:13;;;;;;;9.85;3.15;;;;;;;;;;5024970;28;20025;-67
2023/03/03 05:05:39;;;;;;;11.23;3.35;;;;;;;;;;5008920;28;20041;-68
2023/03/03 05:08:04;;;;;;;11.20;3.50;;;;;;;;;;5025904;28;20391;-68
2023/03/03 05:10:32;;;;;;;13.40;3.95;;;;;;;;;;5026233;28;20029;-68
2023/03/03 05:12:57;;;;;;;8.10;3.83;;;;;;;;;;5026574;28;20037;-68
2023/03/03 05:15:23;;;;;;;14.07;4.10;;;;;;;;;;5026722;28;20025;-68
2023/03/03 05:17:48;;;;;;;12.35;3.75;;;;;;;;;;4990462;28;20040;-68
2023/03/03 05:20:13;;;;;;;9.30;3.67;;;;;;;;;;5026499;28;20118;-67
2023/03/03 05:22:39;;;;;;;8.05;3.75;;;;;;;;;;5026198;28;20406;-67
2023/03/03 05:25:08;;;;;;;16.48;4.10;;;;;;;;;;5057807;28;20076;-67
2023/03/03 05:27:35;;;;;;;12.80;4.20;;;;;;;;;;5025881;28;20095;-68
2023/03/03 05:30:01;;;;;;;11.57;3.83;;;;;;;;;;5026167;28;20029;-68
2023/03/03 05:32:26;;;;;;;11.98;3.78;;;;;;;;;;5025735;28;20029;-68
2023/03/03 05:34:53;;;;;;;11.15;4.15;;;;;;;;;;5024147;28;20510;-68
2023/03/03 05:37:19;;;;;;;9.35;3.83;;;;;;;;;;5024097;28;20029;-68
2023/03/03 05:39:46;;;;;;;8.35;4.18;;;;;;;;;;5025702;28;20036;-68
2023/03/03 05:42:12;;;;;;;13.35;4.40;;;;;;;;;;5024449;28;20021;-68
2023/03/03 05:44:37;;;;;;;11.32;4.00;;;;;;;;;;5026772;28;20037;-68
2023/03/03 05:47:03;;;;;;;8.52;3.85;;;;;;;;;;5035038;28;20036;-68
2023/03/03 05:49:30;;;;;;;17.17;4.15;;;;;;;;;;5045801;28;20120;-68
2023/03/03 05:51:56;;;;;;;10.48;4.55;;;;;;;;;;5024036;28;20038;-67
2023/03/03 05:54:21;;;;;;;9.65;3.97;;;;;;;;;;5024009;28;20036;-67
2023/03/03 05:56:46;;;;;;;12.73;5.65;;;;;;;;;;5025538;28;20493;-69
2023/03/03 05:59:11;;;;;;;10.20;4.45;;;;;;;;;;5024267;28;20026;-68
2023/03/03 06:01:37;;;;;;;17.02;4.53;;;;;;;;;;5025556;28;20605;-68
2023/03/03 06:04:02;;;;;;;11.93;5.03;;;;;;;;;;5007599;28;20467;-68
2023/03/03 06:06:28;;;;;;;12.82;4.57;;;;;;;;;;5023403;28;20079;-67
2023/03/03 06:08:53;;;;;;;10.13;4.43;;;;;;;;;;5007349;28;20505;-67
2023/03/03 06:11:18;;;;;;;19.92;4.65;;;;;;;;;;5025304;28;20379;-69
2023/03/03 06:13:43;;;;;;;9.07;4.65;;;;;;;;;;5025726;28;20033;-68
2023/03/03 06:16:09;;;;;;;12.02;4.88;;;;;;;;;;5023231;28;20112;-68
2023/03/03 06:18:34;;;;;;;15.90;5.22;;;;;;;;;;5019844;28;20053;-68
2023/03/03 06:20:59;;;;;;;12.95;4.80;;;;;;;;;;5005465;28;20112;-69
2023/03/03 06:23:25;;;;;;;15.40;5.00;;;;;;;;;;5005025;28;20026;-68
2023/03/03 06:25:50;;;;;;;10.73;4.20;;;;;;;;;;5037176;28;20033;-67
2023/03/03 06:28:15;;;;;;;13.38;4.95;;;;;;;;;;5035969;28;20056;-69
2023/03/03 06:30:43;;;;;;;17.40;5.40;;;;;;;;;;5005616;28;20056;-68
2023/03/03 06:33:10;;;;;;;9.82;4.43;;;;;;;;;;5005762;28;20090;-68
2023/03/03 06:35:36;;;;;;;12.00;5.20;;;;;;;;;;4986987;28;20037;-68
2023/03/03 06:38:03;;;;;;;11.25;4.90;;;;;;;;;;5003902;28;20677;-68
2023/03/03 06:40:29;;;;;;;14.02;4.63;;;;;;;;;;5004032;28;20030;-68
2023/03/03 06:42:54;;;;;;;11.23;4.93;;;;;;;;;;5005199;28;20498;-68
2023/03/03 06:45:19;;;;;;;14.35;5.05;;;;;;;;;;5004393;28;20029;-67
2023/03/03 06:47:45;;;;;;;15.43;5.25;;;;;;;;;;5021634;28;20103;-69
2023/03/03 06:50:15;;;;;;;13.68;4.32;;;;;;;;;;5024123;28;20541;-68
2023/03/03 06:52:40;;;;;;;10.75;4.68;;;;;;;;;;5024279;28;20029;-68
2023/03/03 06:55:10;;;;;;;11.85;5.00;;;;;;;;;;5023028;28;20482;-69
2023/03/03 06:57:38;;;;;;;;;;;;;;;;;;5023281;28;20056;-67
2023/03/03 07:00:14;;;;;;;8.95;4.22;;;;;;;;;;5024580;28;19905;-70
2023/03/03 07:02:40;;;;;;;16.15;4.45;;;;;;;;;;5042365;28;20166;-69
2023/03/03 07:05:08;;;;;;;8.85;4.30;;;;;;;;;;5045447;28;20148;-69
2023/03/03 07:07:33;;;;;;;9.70;5.07;;;;;;;;;;5044062;28;20076;-68
2023/03/03 07:09:59;;;;;;;8.95;4.95;;;;;;;;;;5044598;28;20501;-69
2023/03/03 07:12:28;;;;;;;12.02;4.65;;;;;;;;;;5044043;28;20021;-68
2023/03/03 07:15:15;;;;;;;8.93;3.92;;;;;;;;;;5023993;28;20386;-68
2023/03/03 07:17:44;;;;;;;10.57;4.20;;;;;;;;;;4984375;28;20460;-68
2023/03/03 07:20:33;;;;;;;14.40;5.35;;;;;;;;;;4984494;28;20042;-68
2023/03/03 07:23:16;;;;;;;7.70;4.13;;;;;;;;;;4983242;28;20041;-69
2023/03/03 07:25:42;;;;;;;13.25;4.68;;;;;;;;;;4998957;28;20373;-72
2023/03/03 07:28:13;;;;;;;11.40;4.45;;;;;;;;;;4985185;28;20034;-68
2023/03/03 07:30:39;;;;;;;9.05;4.15;;;;;;;;;;4983113;28;20038;-69
2023/03/03 07:33:07;;;;;;;14.57;4.88;;;;;;;;;;4985237;28;20034;-69
2023/03/03 07:35:37;;;;;;;11.43;4.60;;;;;;;;;;4984654;28;20484;-70
2023/03/03 07:38:10;;;;;;;14.88;4.97;;;;;;;;;;4982798;28;20058;-69
2023/03/03 07:40:37;;;;;;;12.77;4.57;;;;;;;;;;4984385;28;20058;-69
2023/03/03 07:43:20;;;;;;;9.57;3.85;;;;;;;;;;4966083;28;20088;-68
2023/03/03 07:45:46;;;;;;;13.70;4.85;;;;;;;;;;4985448;28;20105;-69
2023/03/03 07:48:14;;;;;;;10.75;4.03;;;;;;;;;;5021715;28;20447;-69
2023/03/03 07:50:48;;;;;;;8.57;3.70;;;;;;;;;;5023024;28;20041;-69
2023/03/03 07:53:20;;;;;;;13.15;3.80;;;;;;;;;;5021032;28;20115;-70
2023/03/03 07:55:45;;;;;;;14.17;4.93;;;;;;;;;;5021822;28;20044;-68
2023/03/03 07:58:11;;;;;;;13.73;3.67;;;;;;;;;;5023984;28;20029;-69
2023/03/03 08:01:09;;;;;;;13.55;3.50;;;;;;;;;;5023472;28;20092;-69
2023/03/03 08:03:35;;;;;;;8.02;2.53;;;;;;;;;;4988882;28;20057;-69
2023/03/03 08:06:05;;;;;;;6.40;1.80;;;;;;;;;;5021658;28;20475;-70
2023/03/03 08:08:35;;;;;;;5.53;2.00;;;;;;;;;;5023023;28;20120;-68
2023/03/03 08:11:01;;;;;;;6.35;1.60;;;;;;;;;;5022917;28;20034;-69
2023/03/03 08:13:31;;;;;;;7.20;1.50;;;;;;;;;;5023421;28;25022;-70
2023/03/03 08:16:09;;;;;;;2.22;1.20;;;;;;;;;;5011162;28;20030;-71
2023/03/03 08:18:34;;;;;;;6.68;1.48;;;;;;;;;;5001128;28;20049;-70
2023/03/03 08:21:01;;;;;;;4.93;1.20;;;;;;;;;;5018340;28;20026;-70
2023/03/03 08:23:29;;;;;;;4.03;1.42;;;;;;;;;;5003596;28;20391;-70
2023/03/03 08:25:55;;;;;;;5.93;1.50;;;;;;;;;;5004169;28;20026;-70
2023/03/03 08:28:22;;;;;;;5.22;1.30;;;;;;;;;;5001604;28;20037;-70
2023/03/03 08:30:48;;;;;;;4.00;0.90;;;;;;;;;;5002988;28;20041;-68
2023/03/03 08:33:14;;;;;;;7.80;1.20;;;;;;;;;;5001540;28;20030;-69
2023/03/03 08:35:39;;;;;;;4.75;1.05;;;;;;;;;;5001570;28;20034;-69
2023/03/03 08:38:05;;;;;;;4.40;1.00;;;;;;;;;;5003600;28;20026;-71
2023/03/03 08:40:30;;;;;;;7.55;1.20;;;;;;;;;;4984610;28;20180;-70
2023/03/03 08:42:58;;;;;;;4.38;1.00;;;;;;;;;;5003374;28;20026;-70
2023/03/03 08:45:24;;;;;;;5.20;1.20;;;;;;;;;;5034639;28;20037;-69
2023/03/03 08:47:49;;;;;;;4.68;0.90;;;;;;;;;;5018666;28;20030;-69
2023/03/03 08:50:17;;;;;;;3.25;1.02;;;;;;;;;;5021437;28;20390;-69
2023/03/03 08:52:43;;;;;;;6.15;1.17;;;;;;;;;;5023047;28;20022;-70
2023/03/03 08:55:13;;;;;;;4.45;0.90;;;;;;;;;;5005021;28;20025;-71
2023/03/03 08:57:39;;;;;;;4.07;1.10;;;;;;;;;;5022690;28;20436;-70
2023/03/03 09:00:08;;;;;;;4.53;1.40;;;;;;;;;;5021130;28;20473;-70
2023/03/03 09:02:36;;;;;;;3.25;1.00;;;;;;;;;;5022258;28;20022;-71
2023/03/03 09:05:01;;;;;;;4.70;1.20;;;;;;;;;;5020708;28;20498;-71
2023/03/03 09:07:27;;;;;;;4.63;1.35;;;;;;;;;;5022783;28;20013;-71
2023/03/03 09:09:52;;;;;;;3.03;1.10;;;;;;;;;;5020536;28;20051;-70
2023/03/03 09:12:28;;;;;;;3.08;1.00;;;;;;;;;;5021075;28;20053;-70
2023/03/03 09:14:55;;;;;;;4.75;1.25;;;;;;;;;;5011384;28;20018;-71
2023/03/03 09:17:26;;;;;;;4.15;1.23;;;;;;;;;;5003028;28;20487;-71
2023/03/03 09:19:54;;;;;;;2.80;1.23;;;;;;;;;;5000228;28;20124;-69
2023/03/03 09:22:23;;;;;;;4.18;1.15;;;;;;;;;;5002870;28;20037;-71
2023/03/03 09:24:49;;;;;;;4.18;1.10;;;;;;;;;;5002768;28;20479;-70
2023/03/03 09:27:21;;;;;;;3.35;1.40;;;;;;;;;;5003166;28;20029;-70
2023/03/03 09:29:49;;;;;;;5.32;1.40;;;;;;;;;;5002893;28;20546;-70
2023/03/03 09:32:21;;;;;;;2.72;0.95;;;;;;;;;;5002311;28;20037;-70
2023/03/03 09:34:46;;;;;;;5.05;1.10;;;;;;;;;;5002283;28;20411;-71
2023/03/03 09:37:35;;;;;;;6.22;1.27;;;;;;;;;;5003089;28;20022;-69
2023/03/03 09:40:01;;;;;;;2.95;1.40;;;;;;;;;;5002698;28;20167;-71
2023/03/03 09:42:26;;;;;;;5.38;1.20;;;;;;;;;;5000890;28;20526;-72
2023/03/03 09:44:54;;;;;;;4.82;0.95;;;;;;;;;;5003539;28;20022;-71
2023/03/03 09:47:26;;;;;;;4.55;1.00;;;;;;;;;;5019719;28;20022;-70
2023/03/03 09:49:53;;;;;;;6.90;1.00;;;;;;;;;;5025964;28;20506;-70
2023/03/03 09:52:38;;;;;;;4.82;1.90;;;;;;;;;;5024514;28;20486;-70
2023/03/03 09:55:22;;;;;;;9.82;5.90;;;;;;;;;;5026002;28;20022;-70
2023/03/03 09:58:03;;;;;;;18.48;12.95;;;;;;;;;;5025672;28;20026;-70
2023/03/03 10:00:35;;;;;;;4.13;1.85;;;;;;;;;;5025589;28;20056;-71
2023/03/03 10:03:18;;;;;;;3.25;1.10;;;;;;;;;;5025873;28;20018;-70
2023/03/03 10:05:47;;;;;;;3.38;1.10;;;;;;;;;;5024167;28;20367;-70
2023/03/03 10:08:20;;;;;;;5.60;1.02;;;;;;;;;;5024124;28;20048;-71
2023/03/03 10:11:06;;;;;;;4.22;0.88;;;;;;;;;;5025820;28;20107;-71
2023/03/03 10:13:37;;;;;;;9.75;1.42;;;;;;;;;;5021597;28;20049;-70
2023/03/03 10:16:16;;;;;;;8.25;1.45;;;;;;;;;;5020319;28;20043;-71
2023/03/03 10:18:55;;;;;;;3.38;1.30;;;;;;;;;;5006069;28;20465;-70
2023/03/03 10:21:24;;;;;;;3.65;1.40;;;;;;;;;;5005864;28;20547;-71
2023/03/03 10:23:54;;;;;;;4.07;1.25;;;;;;;;;;5005717;28;20038;-72
2023/03/03 10:26:22;;;;;;;2.78;0.80;;;;;;;;;;5005596;28;20457;-69
2023/03/03 10:29:08;;;;;;;2.63;1.05;;;;;;;;;;5005585;28;20045;-69
2023/03/03 10:31:52;;;;;;;5.57;0.80;;;;;;;;;;5003784;28;20022;-69
2023/03/03 10:34:32;;;;;;;1.85;0.70;;;;;;;;;;5005409;28;20052;-69
2023/03/03 10:37:35;;;;;;;7.50;0.90;;;;;;;;;;5005751;28;20037;-70
2023/03/03 10:40:09;;;;;;;3.70;0.75;;;;;;;;;;4982741;28;20026;-70
2023/03/03 10:42:34;;;;;;;2.53;0.75;;;;;;;;;;5018687;28;20029;-73
2023/03/03 10:45:06;;;;;;;3.72;1.33;;;;;;;;;;5025170;28;20614;-70
2023/03/03 10:47:40;;;;;;;3.67;0.80;;;;;;;;;;5039682;28;20025;-70
2023/03/03 10:50:05;;;;;;;6.00;0.70;;;;;;;;;;5041657;28;20017;-71
2023/03/03 10:52:31;;;;;;;3.45;1.15;;;;;;;;;;5044832;28;20401;-70
2023/03/03 10:54:59;;;;;;;7.53;1.00;;;;;;;;;;5044364;28;20466;-71
2023/03/03 10:57:29;;;;;;;2.70;0.95;;;;;;;;;;5041618;28;20028;-71
2023/03/03 11:00:13;;;;;;;3.15;0.88;;;;;;;;;;5042853;28;20069;-71
2023/03/03 11:02:58;;;;;;;6.22;1.23;;;;;;;;;;5041200;28;20111;-71
2023/03/03 11:05:38;;;;;;;2.53;0.70;;;;;;;;;;5044998;28;20021;-71
2023/03/03 11:08:13;;;;;;;6.50;0.98;;;;;;;;;;5043134;28;20125;-72
2023/03/03 11:11:04;;;;;;;7.35;1.10;;;;;;;;;;5043920;28;20116;-72
2023/03/03 11:13:29;;;;;;;5.45;0.90;;;;;;;;;;5028453;28;20198;-72
2023/03/03 11:16:09;;;;;;;6.07;1.00;;;;;;;;;;5022954;28;20130;-71
2023/03/03 11:18:51;;;;;;;6.70;0.90;;;;;;;;;;5024254;28;20021;-72
2023/03/03 11:21:21;;;;;;;4.28;0.75;;;;;;;;;;5022522;28;20053;-72
2023/03/03 11:23:52;;;;;;;3.60;0.90;;;;;;;;;;5005533;28;20032;-71
2023/03/03 11:26:27;;;;;;;2.67;0.70;;;;;;;;;;5023749;28;20026;-71
2023/03/03 11:29:02;;;;;;;4.10;0.80;;;;;;;;;;5024024;28;20494;-71
2023/03/03 11:31:39;;;;;;;4.57;0.65;;;;;;;;;;5024125;28;20048;-71
2023/03/03 11:34:23;;;;;;;6.47;0.98;;;;;;;;;;5024413;28;20032;-72
2023/03/03 11:36:54;;;;;;;2.70;0.70;;;;;;;;;;5022375;28;20049;-72
2023/03/03 11:39:22;;;;;;;5.45;0.95;;;;;;;;;;5022247;28;20045;-70
2023/03/03 11:42:03;;;;;;;6.82;1.52;;;;;;;;;;5023734;28;20033;-71
2023/03/03 11:44:34;;;;;;;4.38;0.80;;;;;;;;;;5023623;28;20034;-71
2023/03/03 11:47:12;;;;;;;6.57;0.93;;;;;;;;;;5032635;28;20029;-71
2023/03/03 11:49:49;;;;;;;2.53;0.70;;;;;;;;;;5023687;28;20047;-71
2023/03/03 11:52:21;;;;;;;6.28;0.95;;;;;;;;;;5023146;28;20179;-71
2023/03/03 11:54:55;;;;;;;4.10;0.90;;;;;;;;;;5023563;28;20107;-72
2023/03/03 11:57:27;;;;;;;8.77;1.90;;;;;;;;;;5023480;28;20083;-71
2023/03/03 11:59:52;;;;;;;5.57;0.73;;;;;;;;;;5023775;28;20022;-71
2023/03/03 12:02:33;;;;;;;6.05;1.10;;;;;;;;;;5022346;28;20250;-71
2023/03/03 12:05:15;;;;;;;3.08;1.17;;;;;;;;;;5023682;28;20171;-71
2023/03/03 12:07:46;;;;;;;6.23;1.23;;;;;;;;;;5023225;28;20081;-72
2023/03/03 12:10:11;;;;;;;4.43;1.02;;;;;;;;;;5023279;28;20036;-72
2023/03/03 12:12:44;;;;;;;5.70;1.10;;;;;;;;;;5013199;28;20026;-71
2023/03/03 12:15:27;;;;;;;6.10;1.15;;;;;;;;;;5003335;28;20205;-71
2023/03/03 12:18:01;;;;;;;6.03;0.90;;;;;;;;;;5003375;28;20564;-72
2023/03/03 12:20:36;;;;;;;7.45;0.90;;;;;;;;;;5001355;28;20084;-71
2023/03/03 12:23:23;;;;;;;8.13;0.85;;;;;;;;;;5003455;28;20491;-71
2023/03/03 12:25:55;;;;;;;6.68;1.10;;;;;;;;;;5001627;28;20022;-70
2023/03/03 12:28:26;;;;;;;5.85;1.00;;;;;;;;;;5003878;28;20289;-71
2023/03/03 12:30:57;;;;;;;3.30;0.80;;;;;;;;;;5001878;28;20037;-70
2023/03/03 12:33:41;;;;;;;6.97;1.02;;;;;;;;;;5003133;28;20049;-71
2023/03/03 12:36:18;;;;;;;6.03;0.88;;;;;;;;;;5003096;28;20351;-71
2023/03/03 12:38:46;;;;;;;7.57;0.90;;;;;;;;;;5001107;28;20026;-71
2023/03/03 12:41:15;;;;;;;4.55;1.10;;;;;;;;;;5003274;28;20022;-71
2023/03/03 12:43:40;;;;;;;10.90;0.80;;;;;;;;;;5003499;28;20030;-72
2023/03/03 12:46:12;;;;;;;5.70;0.90;;;;;;;;;;5006581;28;20386;-70
2023/03/03 12:48:43;;;;;;;5.57;1.08;;;;;;;;;;5022825;28;20036;-71
2023/03/03 12:51:27;;;;;;;5.40;1.23;;;;;;;;;;5022553;28;20025;-71
2023/03/03 12:53:52;;;;;;;6.43;1.08;;;;;;;;;;5022788;28;20029;-72
2023/03/03 12:56:25;;;;;;;2.97;1.10;;;;;;;;;;5023152;28;20488;-72
2023/03/03 12:58:50;;;;;;;9.65;1.20;;;;;;;;;;5020923;28;20124;-71
2023/03/03 13:01:40;;;;;;;5.63;1.10;;;;;;;;;;5020632;28;20034;-72
2023/03/03 13:04:13;;;;;;;4.32;0.80;;;;;;;;;;5022355;28;20120;-72
2023/03/03 13:06:39;;;;;;;4.65;0.80;;;;;;;;;;5022272;28;20048;-70
2023/03/03 13:09:07;;;;;;;7.68;0.88;;;;;;;;;;5022671;28;20033;-73
2023/03/03 13:11:38;;;;;;;9.43;0.98;;;;;;;;;;5014534;28;20479;-71
2023/03/03 13:14:09;;;;;;;3.90;0.70;;;;;;;;;;5002712;28;20037;-70
2023/03/03 13:16:44;;;;;;;9.63;0.90;;;;;;;;;;5002745;28;20037;-71
2023/03/03 13:19:19;;;;;;;6.07;1.17;;;;;;;;;;4984619;28;20499;-71
2023/03/03 13:21:45;;;;;;;6.53;0.90;;;;;;;;;;5005682;28;20030;-71
2023/03/03 13:24:16;;;;;;;3.60;0.77;;;;;;;;;;5005357;28;20029;-71
2023/03/03 13:26:41;;;;;;;6.60;0.98;;;;;;;;;;4988775;28;20125;-72
2023/03/03 13:29:09;;;;;;;5.32;0.95;;;;;;;;;;5021585;28;20466;-71
2023/03/03 13:31:39;;;;;;;5.53;0.90;;;;;;;;;;5006381;28;20018;-71
2023/03/03 13:34:07;;;;;;;7.47;1.00;;;;;;;;;;5005964;28;20026;-71
2023/03/03 13:36:39;;;;;;;2.10;1.00;;;;;;;;;;5006286;28;20081;-72
2023/03/03 13:39:16;;;;;;;7.97;1.25;;;;;;;;;;5004838;28;20033;-70
2023/03/03 13:41:55;;;;;;;3.15;0.80;;;;;;;;;;5004622;28;20116;-71
2023/03/03 13:44:30;;;;;;;4.75;0.70;;;;;;;;;;5006259;28;20282;-71
2023/03/03 13:46:58;;;;;;;3.42;0.73;;;;;;;;;;5015754;28;20029;-71
2023/03/03 13:49:39;;;;;;;5.78;0.90;;;;;;;;;;5026115;28;20108;-71
2023/03/03 13:52:11;;;;;;;6.25;1.15;;;;;;;;;;5044015;28;20029;-70
2023/03/03 13:54:36;;;;;;;7.53;0.82;;;;;;;;;;5045519;28;20025;-71
2023/03/03 13:57:16;;;;;;;6.88;0.90;;;;;;;;;;5045431;28;20506;-72
2023/03/03 13:59:41;;;;;;;7.78;1.08;;;;;;;;;;5042115;28;20037;-71
2023/03/03 14:02:24;;;;;;;9.48;1.27;;;;;;;;;;5045807;28;20390;-70
2023/03/03 14:04:58;;;;;;;7.63;1.00;;;;;;;;;;5045450;28;20114;-70
2023/03/03 14:07:58;;;;;;;12.57;1.20;;;;;;;;;;5043935;28;20033;-71
2023/03/03 14:10:30;;;;;;;8.45;1.15;;;;;;;;;;5015699;28;20037;-72
2023/03/03 14:12:55;;;;;;;5.93;1.38;;;;;;;;;;5025418;28;20025;-70
2023/03/03 14:15:26;;;;;;;6.93;1.77;;;;;;;;;;5023586;28;20095;-70
2023/03/03 14:17:58;;;;;;;9.70;1.30;;;;;;;;;;5024468;28;20064;-73
2023/03/03 14:20:28;;;;;;;9.35;1.38;;;;;;;;;;5022179;28;20034;-71
2023/03/03 14:22:58;;;;;;;8.15;1.40;;;;;;;;;;5024977;28;20041;-71
2023/03/03 14:25:24;;;;;;;8.68;1.40;;;;;;;;;;5040066;28;20343;-70
2023/03/03 14:27:49;;;;;;;5.90;1.40;;;;;;;;;;5025501;28;20083;-70
2023/03/03 14:30:23;;;;;;;9.98;1.10;;;;;;;;;;5039432;28;20061;-70
2023/03/03 14:33:01;;;;;;;9.48;1.40;;;;;;;;;;5024613;28;20025;-70
2023/03/03 14:35:31;;;;;;;6.97;1.30;;;;;;;;;;5023013;28;20025;-70
2023/03/03 14:38:05;;;;;;;7.90;1.60;;;;;;;;;;5024799;28;20025;-71
2023/03/03 14:40:31;;;;;;;9.07;1.85;;;;;;;;;;5023664;28;20182;-71
2023/03/03 14:42:58;;;;;;;7.43;1.40;;;;;;;;;;5024991;28;20060;-72
2023/03/03 14:45:30;;;;;;;7.65;1.00;;;;;;;;;;5025322;28;20101;-70
2023/03/03 14:47:55;;;;;;;7.57;1.40;;;;;;;;;;5022813;28;20037;-70
2023/03/03 14:50:40;;;;;;;10.88;1.60;;;;;;;;;;5024891;28;20032;-71
2023/03/03 14:53:12;;;;;;;9.93;1.38;;;;;;;;;;5021601;28;20175;-71
2023/03/03 14:55:39;;;;;;;13.75;1.85;;;;;;;;;;5022892;28;20044;-71